createdAt,value
2022-10-11T00:01:15.912Z,9.60
2022-10-11T00:03:42.228Z,17.50
2022-10-11T00:06:09.347Z,9.30
2022-10-11T00:08:36.117Z,11.60
2022-10-11T00:11:06.249Z,17.73
2022-10-11T00:13:33.064Z,20.67
2022-10-11T00:15:59.700Z,12.23
2022-10-11T00:18:26.299Z,16.77
2022-10-11T00:21:07.693Z,13.50
2022-10-11T00:23:34.218Z,9.93
2022-10-11T00:26:03.301Z,15.47
2022-10-11T00:28:30.465Z,15.67
2022-10-11T00:30:57.189Z,14.03
2022-10-11T00:33:23.659Z,11.40
2022-10-11T00:35:50.082Z,18.90
2022-10-11T00:38:16.908Z,24.13
2022-10-11T00:40:43.813Z,18.30
2022-10-11T00:43:19.108Z,13.97
2022-10-11T00:45:51.129Z,10.30
2022-10-11T00:48:23.249Z,12.77
2022-10-11T00:50:49.700Z,12.90
2022-10-11T00:53:16.001Z,13.93
2022-10-11T00:55:50.581Z,9.20
2022-10-11T00:58:18.677Z,16.90
2022-10-11T01:00:45.080Z,13.70
2022-10-11T01:03:11.406Z,9.27
2022-10-11T01:05:39.593Z,15.70
2022-10-11T01:08:08.105Z,12.53
2022-10-11T01:10:35.090Z,13.90
2022-10-11T01:13:16.539Z,13.03
2022-10-11T01:15:55.077Z,23.67
2022-10-11T01:18:30.929Z,19.50
2022-10-11T01:21:05.132Z,27.30
2022-10-11T01:23:40.423Z,12.30
2022-10-11T01:26:51.084Z,14.47
2022-10-11T01:29:32.548Z,14.43
2022-10-11T01:32:07.463Z,14.70
2022-10-11T01:34:52.457Z,16.73
2022-10-11T01:37:36.923Z,19.50
2022-10-11T01:40:32.415Z,17.07
2022-10-11T01:43:00.548Z,8.43
2022-10-11T01:45:27.224Z,13.20
2022-10-11T01:48:09.892Z,11.20
2022-10-11T01:50:47.543Z,13.83
2022-10-11T01:53:47.159Z,14.23
2022-10-11T01:56:31.676Z,17.60
2022-10-11T01:59:16.462Z,12.47
2022-10-11T02:01:45.738Z,14.50
2022-10-11T02:04:22.318Z,16.27
2022-10-11T02:07:10.781Z,16.50
2022-10-11T02:09:56.578Z,13.00
2022-10-11T02:12:32.750Z,13.00
2022-10-11T02:15:02.742Z,13.70
2022-10-11T02:17:37.126Z,14.47
2022-10-11T02:20:09.429Z,20.23
2022-10-11T02:22:38.618Z,11.70
2022-10-11T02:25:10.533Z,13.93
2022-10-11T02:27:39.438Z,19.80
2022-10-11T02:30:09.371Z,15.23
2022-10-11T02:32:39.908Z,15.23
2022-10-11T02:35:07.044Z,14.77
2022-10-11T02:37:43.457Z,12.93
2022-10-11T02:40:21.655Z,12.97
2022-10-11T02:42:58.682Z,13.40
2022-10-11T02:45:56.060Z,15.83
2022-10-11T02:48:25.015Z,14.20
2022-10-11T02:50:53.192Z,16.00
2022-10-11T02:53:21.043Z,15.00
2022-10-11T02:55:49.832Z,16.53
2022-10-11T02:58:16.151Z,16.33
2022-10-11T03:00:42.687Z,13.60
2022-10-11T03:03:09.022Z,11.30
2022-10-11T03:05:41.396Z,18.50
2022-10-11T03:08:08.445Z,13.10
2022-10-11T03:10:35.429Z,15.93
2022-10-11T03:13:02.362Z,14.67
2022-10-11T03:15:29.160Z,22.03
2022-10-11T03:17:55.973Z,18.13
2022-10-11T03:20:22.578Z,14.00
2022-10-11T03:22:48.900Z,14.33
2022-10-11T03:25:15.301Z,13.20
2022-10-11T03:27:41.589Z,17.37
2022-10-11T03:30:14.191Z,14.47
2022-10-11T03:32:45.500Z,16.50
2022-10-11T03:35:11.849Z,13.13
2022-10-11T03:37:38.245Z,10.90
2022-10-11T03:40:06.426Z,18.87
2022-10-11T03:42:32.716Z,18.57
2022-10-11T03:45:01.508Z,13.90
2022-10-11T03:47:27.793Z,16.93
2022-10-11T03:49:54.097Z,15.50
2022-10-11T03:52:20.434Z,18.20
2022-10-11T03:54:46.769Z,14.40
2022-10-11T03:57:13.261Z,15.03
2022-10-11T03:59:39.747Z,17.80
2022-10-11T04:02:06.326Z,16.30
2022-10-11T04:04:32.857Z,21.87
2022-10-11T04:06:59.199Z,22.80
2022-10-11T04:09:25.470Z,21.20
2022-10-11T04:11:51.792Z,15.13
2022-10-11T04:14:18.135Z,14.87
2022-10-11T04:16:44.430Z,24.23
2022-10-11T04:19:10.708Z,18.40
2022-10-11T04:21:36.984Z,17.87
2022-10-11T04:24:03.519Z,15.57
2022-10-11T04:26:29.952Z,19.77
2022-10-11T04:28:56.309Z,22.60
2022-10-11T04:31:23.448Z,14.50
2022-10-11T04:33:50.176Z,16.20
2022-10-11T04:36:16.470Z,20.27
2022-10-11T04:38:42.805Z,19.20
2022-10-11T04:41:12.272Z,18.30
2022-10-11T04:43:39.018Z,20.13
2022-10-11T04:46:06.331Z,17.63
2022-10-11T04:48:32.902Z,15.80
2022-10-11T04:50:59.275Z,23.53
2022-10-11T04:53:25.641Z,17.93
2022-10-11T04:56:14.989Z,17.80
2022-10-11T04:58:41.555Z,13.20
2022-10-11T05:01:08.944Z,19.33
2022-10-11T05:03:35.604Z,17.87
2022-10-11T05:06:05.578Z,20.43
2022-10-11T05:08:32.761Z,19.73
2022-10-11T05:11:05.767Z,14.80
2022-10-11T05:13:34.038Z,17.67
2022-10-11T05:16:00.377Z,19.50
2022-10-11T05:18:27.339Z,24.93
2022-10-11T05:21:05.842Z,22.77
2022-10-11T05:23:33.981Z,21.30
2022-10-11T05:26:01.670Z,19.93
2022-10-11T05:28:28.206Z,17.97
2022-10-11T05:30:55.018Z,15.50
2022-10-11T05:33:21.462Z,21.90
2022-10-11T05:35:47.963Z,16.10
2022-10-11T05:38:14.335Z,23.53
2022-10-11T05:40:40.666Z,19.17
2022-10-11T05:43:07.343Z,13.17
2022-10-11T05:45:38.731Z,16.30
2022-10-11T05:48:05.896Z,20.40
2022-10-11T05:50:32.767Z,18.00
2022-10-11T05:52:59.242Z,27.00
2022-10-11T05:55:25.736Z,23.40
2022-10-11T05:57:56.419Z,21.80
2022-10-11T06:00:25.090Z,19.80
2022-10-11T06:02:52.349Z,35.20
2022-10-11T06:05:18.654Z,23.10
2022-10-11T06:07:44.947Z,21.90
2022-10-11T06:10:11.852Z,25.43
2022-10-11T06:12:38.678Z,27.43
2022-10-11T06:15:06.276Z,30.13
2022-10-11T06:17:32.646Z,25.47
2022-10-11T06:19:58.929Z,29.70
2022-10-11T06:22:26.548Z,33.00
2022-10-11T06:24:52.847Z,22.70
2022-10-11T06:27:19.340Z,25.43
2022-10-11T06:29:45.662Z,40.83
2022-10-11T06:32:13.245Z,32.53
2022-10-11T06:34:39.542Z,30.43
2022-10-11T06:37:05.858Z,36.43
2022-10-11T06:39:32.254Z,27.97
2022-10-11T06:41:58.548Z,30.13
2022-10-11T06:44:26.204Z,33.63
2022-10-11T06:46:52.502Z,30.23
2022-10-11T06:49:23.155Z,30.40
2022-10-11T06:51:50.299Z,35.00
2022-10-11T06:54:16.636Z,40.67
2022-10-11T06:56:44.595Z,31.23
2022-10-11T06:59:12.022Z,35.33
2022-10-11T07:01:38.383Z,36.10
2022-10-11T07:04:04.956Z,41.17
2022-10-11T07:06:32.094Z,33.57
2022-10-11T07:09:00.390Z,33.10
2022-10-11T07:11:28.091Z,39.80
2022-10-11T07:13:57.024Z,32.73
2022-10-11T07:16:24.387Z,38.93
2022-10-11T07:19:00.695Z,36.93
2022-10-11T07:21:29.367Z,32.73
2022-10-11T07:23:55.697Z,34.83
2022-10-11T07:26:22.062Z,31.23
2022-10-11T07:28:48.517Z,35.80
2022-10-11T07:31:17.939Z,35.63
2022-10-11T07:33:44.523Z,32.00
2022-10-11T07:36:11.773Z,36.50
2022-10-11T07:38:43.560Z,42.50
2022-10-11T07:41:10.329Z,30.07
2022-10-11T07:43:37.890Z,32.40
2022-10-11T07:46:05.650Z,35.67
2022-10-11T07:48:34.390Z,29.77
2022-10-11T07:51:10.101Z,30.47
2022-10-11T07:53:47.361Z,33.47
2022-10-11T07:56:16.288Z,31.23
2022-10-11T07:58:43.433Z,33.33
2022-10-11T08:01:11.166Z,36.63
2022-10-11T08:03:38.231Z,27.30
2022-10-11T08:06:08.566Z,31.67
2022-10-11T08:08:36.533Z,34.80
2022-10-11T08:11:03.659Z,26.67
2022-10-11T08:13:29.976Z,23.30
2022-10-11T08:15:57.001Z,21.70
2022-10-11T08:18:24.272Z,34.23
2022-10-11T08:20:50.767Z,27.83
2022-10-11T08:23:18.481Z,22.63
2022-10-11T08:25:46.926Z,16.20
2022-10-11T08:28:17.931Z,19.77
2022-10-11T08:30:49.857Z,20.63
2022-10-11T08:33:17.876Z,20.87
2022-10-11T08:35:44.633Z,21.60
2022-10-11T08:38:11.378Z,18.03
2022-10-11T08:40:38.193Z,28.30
2022-10-11T08:43:08.276Z,18.20
2022-10-11T08:45:46.067Z,22.47
2022-10-11T08:48:19.868Z,21.00
2022-10-11T08:50:49.871Z,22.43
2022-10-11T08:53:27.268Z,14.00
2022-10-11T08:55:54.777Z,19.00
2022-10-11T08:58:33.062Z,17.63
2022-10-11T09:01:01.015Z,22.67
2022-10-11T09:03:40.464Z,22.50
2022-10-11T09:06:07.400Z,18.00
2022-10-11T09:09:15.420Z,20.60
2022-10-11T09:12:02.928Z,18.23
2022-10-11T09:14:34.996Z,25.10
2022-10-11T09:17:39.770Z,18.27
2022-10-11T09:20:23.969Z,13.00
2022-10-11T09:23:01.963Z,15.57
2022-10-11T09:25:49.410Z,21.73
2022-10-11T09:28:44.421Z,19.70
2022-10-11T09:31:11.584Z,19.70
2022-10-11T09:33:44.048Z,18.70
2022-10-11T09:36:25.699Z,14.47
2022-10-11T09:39:29.654Z,15.70
2022-10-11T09:42:03.387Z,13.43
2022-10-11T09:44:36.955Z,14.70
2022-10-11T09:47:04.443Z,16.40
2022-10-11T09:49:44.728Z,19.37
2022-10-11T09:52:15.806Z,20.93
2022-10-11T09:54:48.527Z,14.10
2022-10-11T09:57:36.847Z,16.00
2022-10-11T10:00:11.902Z,13.47
2022-10-11T10:02:48.780Z,17.40
2022-10-11T10:05:36.703Z,13.37
2022-10-11T10:08:22.777Z,13.77
2022-10-11T10:10:59.641Z,16.80
2022-10-11T10:13:47.765Z,14.33
2022-10-11T10:16:25.072Z,17.93
2022-10-11T10:18:59.140Z,17.30
2022-10-11T10:21:33.896Z,20.03
2022-10-11T10:24:05.131Z,21.30
2022-10-11T10:26:33.280Z,17.53
2022-10-11T10:29:20.003Z,16.10
2022-10-11T10:32:12.979Z,19.00
2022-10-11T10:34:38.409Z,27.33
2022-10-11T10:37:25.194Z,21.20
2022-10-11T10:40:06.346Z,19.23
2022-10-11T10:42:32.962Z,27.87
2022-10-11T10:44:59.900Z,20.27
2022-10-11T10:47:45.984Z,19.90
2022-10-11T10:50:30.950Z,17.53
2022-10-11T10:53:23.068Z,16.47
2022-10-11T10:56:00.996Z,20.50
2022-10-11T10:58:52.367Z,17.73
2022-10-11T11:01:30.458Z,19.30
2022-10-11T11:04:15.882Z,11.37
2022-10-11T11:06:55.355Z,17.03
2022-10-11T11:09:49.709Z,18.47
2022-10-11T11:12:28.244Z,15.10
2022-10-11T11:15:11.446Z,13.57
2022-10-11T11:17:58.032Z,17.47
2022-10-11T11:20:40.172Z,20.90
2022-10-11T11:23:20.571Z,11.80
2022-10-11T11:25:53.895Z,14.57
2022-10-11T11:28:57.910Z,18.70
2022-10-11T11:31:57.347Z,12.70
2022-10-11T11:34:33.140Z,18.13
2022-10-11T11:37:04.168Z,18.80
2022-10-11T11:40:14.025Z,14.03
2022-10-11T11:42:51.301Z,14.40
2022-10-11T11:45:41.613Z,12.00
2022-10-11T11:48:19.704Z,15.73
2022-10-11T11:51:03.665Z,14.23
2022-10-11T11:53:46.542Z,14.00
2022-10-11T11:56:33.065Z,14.37
2022-10-11T11:59:19.658Z,27.23
2022-10-11T12:01:56.666Z,12.40
2022-10-11T12:04:35.970Z,18.33
2022-10-11T12:07:16.264Z,12.53
2022-10-11T12:09:46.383Z,19.83
2022-10-11T12:12:33.872Z,14.87
2022-10-11T12:15:09.071Z,13.10
2022-10-11T12:17:57.856Z,15.07
2022-10-11T12:20:26.975Z,16.60
2022-10-11T12:23:19.740Z,16.70
2022-10-11T12:26:06.288Z,11.00
2022-10-11T12:28:41.938Z,10.03
2022-10-11T12:31:23.648Z,16.20
2022-10-11T12:34:02.275Z,15.23
2022-10-11T12:36:32.798Z,20.07
2022-10-11T12:39:20.858Z,15.90
2022-10-11T12:41:47.087Z,13.40
2022-10-11T12:44:22.599Z,14.33
2022-10-11T12:46:54.951Z,18.97
2022-10-11T12:49:31.038Z,11.50
2022-10-11T12:52:34.572Z,11.10
2022-10-11T12:55:50.637Z,17.73
2022-10-11T12:58:27.941Z,15.30
2022-10-11T13:00:57.682Z,15.17
2022-10-11T13:03:40.818Z,15.70
2022-10-11T13:06:30.849Z,14.90
2022-10-11T13:09:14.809Z,20.27
2022-10-11T13:11:50.803Z,11.43
2022-10-11T13:14:21.394Z,21.57
2022-10-11T13:16:55.693Z,12.27
2022-10-11T13:19:22.901Z,10.17
2022-10-11T13:21:54.393Z,13.57
2022-10-11T13:24:23.036Z,16.13
2022-10-11T13:27:03.443Z,18.03
2022-10-11T13:29:36.259Z,21.63
2022-10-11T13:32:12.381Z,14.80
2022-10-11T13:34:41.557Z,12.83
2022-10-11T13:37:15.103Z,22.73
2022-10-11T13:39:41.723Z,16.20
2022-10-11T13:42:13.320Z,20.07
2022-10-11T13:44:41.236Z,16.50
2022-10-11T13:47:12.922Z,21.83
2022-10-11T13:49:40.083Z,19.90
2022-10-11T13:52:19.781Z,17.33
2022-10-11T13:55:04.056Z,19.53
2022-10-11T13:57:43.422Z,14.90
2022-10-11T14:00:34.827Z,13.17
2022-10-11T14:03:06.658Z,10.70
2022-10-11T14:05:35.650Z,30.77
2022-10-11T14:08:06.244Z,18.70
2022-10-11T14:10:33.320Z,12.00
2022-10-11T14:13:25.335Z,15.13
2022-10-11T14:16:18.845Z,14.53
2022-10-11T14:18:48.554Z,12.90
2022-10-11T14:21:39.882Z,28.77
2022-10-11T14:24:10.413Z,10.00
2022-10-11T14:26:40.637Z,24.23
2022-10-11T14:29:12.228Z,18.40
2022-10-11T14:31:42.012Z,29.50
2022-10-11T14:34:16.658Z,15.27
2022-10-11T14:36:42.991Z,23.03
2022-10-11T14:39:18.559Z,18.77
2022-10-11T14:41:45.692Z,11.50
2022-10-11T14:44:12.945Z,17.60
2022-10-11T14:46:40.809Z,15.37
2022-10-11T14:49:21.902Z,15.60
2022-10-11T14:51:49.962Z,15.33
2022-10-11T14:54:18.889Z,18.20
2022-10-11T14:56:46.177Z,18.40
2022-10-11T14:59:18.664Z,11.37
2022-10-11T15:01:46.865Z,12.80
2022-10-11T15:04:13.320Z,17.37
2022-10-11T15:06:41.135Z,18.40
2022-10-11T15:09:08.102Z,13.33
2022-10-11T15:11:36.872Z,16.07
2022-10-11T15:14:03.840Z,18.70
2022-10-11T15:16:30.447Z,23.87
2022-10-11T15:18:56.798Z,19.27
2022-10-11T15:21:25.879Z,16.07
2022-10-11T15:23:53.808Z,14.90
2022-10-11T15:26:29.367Z,22.10
2022-10-11T15:28:57.005Z,19.20
2022-10-11T15:31:23.810Z,22.70
2022-10-11T15:33:50.425Z,22.63
2022-10-11T15:36:19.632Z,24.80
2022-10-11T15:38:47.467Z,21.50
2022-10-11T15:41:17.454Z,25.87
2022-10-11T15:43:45.207Z,14.60
2022-10-11T15:46:15.767Z,14.80
2022-10-11T15:48:42.060Z,20.20
2022-10-11T15:51:08.468Z,16.40
2022-10-11T15:53:35.191Z,14.87
2022-10-11T15:56:04.988Z,13.30
2022-10-11T15:58:34.464Z,28.07
2022-10-11T16:01:05.931Z,21.13
2022-10-11T16:03:33.219Z,24.37
2022-10-11T16:06:04.929Z,14.57
2022-10-11T16:08:32.922Z,31.00
2022-10-11T16:10:59.348Z,14.33
2022-10-11T16:13:25.642Z,16.53
2022-10-11T16:15:52.109Z,23.10
2022-10-11T16:18:21.009Z,31.97
2022-10-11T16:20:50.919Z,20.23
2022-10-11T16:23:17.586Z,23.60
2022-10-11T16:25:46.221Z,16.80
2022-10-11T16:28:12.532Z,25.30
2022-10-11T16:30:45.280Z,11.37
2022-10-11T16:33:11.591Z,15.33
2022-10-11T16:35:41.489Z,14.77
2022-10-11T16:38:08.227Z,18.53
2022-10-11T16:40:35.963Z,19.87
2022-10-11T16:43:07.368Z,19.80
2022-10-11T16:45:34.925Z,16.47
2022-10-11T16:48:01.337Z,42.07
2022-10-11T16:50:28.908Z,16.63
2022-10-11T16:52:55.386Z,22.93
2022-10-11T16:55:22.487Z,19.40
2022-10-11T16:57:48.824Z,20.53
2022-10-11T17:00:15.853Z,14.70
2022-10-11T17:02:42.163Z,23.17
2022-10-11T17:05:08.527Z,19.77
2022-10-11T17:07:35.139Z,15.83
2022-10-11T17:10:01.602Z,18.67
2022-10-11T17:12:28.603Z,19.67
2022-10-11T17:14:55.268Z,20.10
2022-10-11T17:17:21.826Z,25.80
2022-10-11T17:19:48.200Z,22.83
2022-10-11T17:22:18.306Z,19.70
2022-10-11T17:24:45.097Z,20.63
2022-10-11T17:27:11.853Z,20.20
2022-10-11T17:29:38.348Z,19.23
2022-10-11T17:32:04.837Z,15.83
2022-10-11T17:34:31.231Z,20.83
2022-10-11T17:36:57.564Z,25.13
2022-10-11T17:39:23.998Z,16.70
2022-10-11T17:41:51.051Z,14.90
2022-10-11T17:44:18.342Z,15.70
2022-10-11T17:46:45.125Z,20.30
2022-10-11T17:49:11.823Z,29.27
2022-10-11T17:51:38.984Z,22.33
2022-10-11T17:54:06.125Z,26.00
2022-10-11T17:56:37.668Z,21.77
2022-10-11T17:59:04.408Z,17.20
2022-10-11T18:01:30.821Z,24.63
2022-10-11T18:04:00.320Z,23.30
2022-10-11T18:06:29.200Z,13.20
2022-10-11T18:08:57.218Z,19.20
2022-10-11T18:11:23.933Z,17.80
2022-10-11T18:13:53.102Z,17.40
2022-10-11T18:16:21.783Z,17.77
2022-10-11T18:18:48.501Z,20.43
2022-10-11T18:21:16.053Z,24.90
2022-10-11T18:23:42.499Z,22.87
2022-10-11T18:26:10.494Z,24.70
2022-10-11T18:28:37.022Z,30.27
2022-10-11T18:31:13.209Z,22.77
2022-10-11T18:33:40.930Z,38.63
2022-10-11T18:36:09.166Z,20.10
2022-10-11T18:38:35.791Z,12.33
2022-10-11T18:41:07.458Z,15.77
2022-10-11T18:43:35.037Z,22.17
2022-10-11T18:46:13.973Z,20.57
2022-10-11T18:48:41.998Z,23.13
2022-10-11T18:51:14.860Z,19.63
2022-10-11T18:53:41.994Z,16.50
2022-10-11T18:56:10.358Z,17.60
2022-10-11T18:58:38.181Z,23.20
2022-10-11T19:01:10.255Z,25.00
2022-10-11T19:03:37.128Z,21.07
2022-10-11T19:06:09.523Z,22.20
2022-10-11T19:08:36.023Z,15.70
2022-10-11T19:11:10.430Z,15.70
2022-10-11T19:13:36.853Z,21.30
2022-10-11T19:16:08.763Z,12.63
2022-10-11T19:18:38.344Z,20.57
2022-10-11T19:21:12.353Z,18.67
2022-10-11T19:23:41.027Z,22.37
2022-10-11T19:26:19.550Z,19.60
2022-10-11T19:28:46.827Z,23.57
2022-10-11T19:31:16.915Z,22.07
2022-10-11T19:33:45.321Z,18.57
2022-10-11T19:36:13.898Z,22.80
2022-10-11T19:38:43.965Z,23.70
2022-10-11T19:41:10.788Z,21.00
2022-10-11T19:43:37.068Z,21.63
2022-10-11T19:46:09.432Z,22.37
2022-10-11T19:48:37.997Z,28.83
2022-10-11T19:51:24.580Z,19.83
2022-10-11T19:54:04.594Z,26.60
2022-10-11T19:56:33.287Z,22.43
2022-10-11T19:59:00.725Z,23.40
2022-10-11T20:01:31.426Z,24.40
2022-10-11T20:04:02.129Z,27.00
2022-10-11T20:06:29.008Z,23.63
2022-10-11T20:09:16.608Z,32.17
2022-10-11T20:11:41.928Z,22.97
2022-10-11T20:14:08.678Z,28.20
2022-10-11T20:16:35.529Z,29.00
2022-10-11T20:19:02.048Z,29.23
2022-10-11T20:21:29.687Z,25.53
2022-10-11T20:24:01.850Z,31.33
2022-10-11T20:26:30.050Z,18.00
2022-10-11T20:28:57.415Z,21.50
2022-10-11T20:31:27.643Z,22.27
2022-10-11T20:33:56.852Z,19.17
2022-10-11T20:36:24.163Z,24.93
2022-10-11T20:38:51.585Z,24.10
2022-10-11T20:41:21.545Z,31.23
2022-10-11T20:43:49.917Z,22.80
2022-10-11T20:46:22.181Z,23.63
2022-10-11T20:48:58.901Z,21.47
2022-10-11T20:51:28.521Z,33.97
2022-10-11T20:53:54.900Z,29.57
2022-10-11T20:56:23.935Z,22.77
2022-10-11T20:58:52.600Z,21.00
2022-10-11T21:01:24.355Z,31.00
2022-10-11T21:03:50.668Z,37.03
2022-10-11T21:06:17.052Z,24.50
2022-10-11T21:08:43.798Z,28.10
2022-10-11T21:11:10.891Z,29.70
2022-10-11T21:13:37.695Z,29.93
2022-10-11T21:16:22.007Z,21.23
2022-10-11T21:18:55.994Z,27.90
2022-10-11T21:21:26.185Z,26.53
2022-10-11T21:23:57.041Z,33.87
2022-10-11T21:26:23.518Z,30.13
2022-10-11T21:28:49.910Z,27.47
2022-10-11T21:31:18.080Z,28.27
2022-10-11T21:33:44.972Z,24.67
2022-10-11T21:36:16.624Z,33.13
2022-10-11T21:38:44.556Z,31.80
2022-10-11T21:41:15.965Z,30.60
2022-10-11T21:43:42.510Z,36.00
2022-10-11T21:46:13.860Z,26.30
2022-10-11T21:48:40.523Z,26.97
2022-10-11T21:51:07.287Z,27.73
2022-10-11T21:53:33.760Z,22.73
2022-10-11T21:56:03.269Z,29.40
2022-10-11T21:58:29.681Z,30.70
2022-10-11T22:00:55.994Z,33.83
2022-10-11T22:03:22.321Z,22.73
2022-10-11T22:05:48.676Z,26.53
2022-10-11T22:08:15.361Z,49.17
2022-10-11T22:10:51.932Z,32.87
2022-10-11T22:13:18.229Z,34.20
2022-10-11T22:15:44.529Z,28.77
2022-10-11T22:18:10.915Z,30.80
2022-10-11T22:20:37.204Z,35.43
2022-10-11T22:23:03.762Z,25.80
2022-10-11T22:25:30.627Z,32.37
2022-10-11T22:27:56.920Z,28.57
2022-10-11T22:30:23.219Z,30.23
2022-10-11T22:32:51.057Z,25.00
2022-10-11T22:35:17.336Z,34.97
2022-10-11T22:37:44.058Z,31.03
2022-10-11T22:40:10.520Z,30.40
2022-10-11T22:42:36.893Z,34.00
2022-10-11T22:45:03.875Z,35.53
2022-10-11T22:47:30.192Z,30.03
2022-10-11T22:49:56.471Z,31.13
2022-10-11T22:52:22.790Z,42.13
2022-10-11T22:54:49.066Z,37.37
2022-10-11T22:57:15.387Z,37.70
2022-10-11T22:59:41.713Z,33.90
2022-10-11T23:02:08.260Z,33.90
2022-10-11T23:04:34.558Z,30.03
2022-10-11T23:07:04.807Z,41.20
2022-10-11T23:09:31.619Z,35.60
2022-10-11T23:11:59.422Z,33.80
2022-10-11T23:14:25.754Z,38.53
2022-10-11T23:16:52.386Z,28.90
2022-10-11T23:19:18.993Z,26.20
2022-10-11T23:21:45.309Z,30.60
2022-10-11T23:24:11.658Z,39.10
2022-10-11T23:26:38.029Z,36.90
2022-10-11T23:29:04.341Z,34.00
2022-10-11T23:31:30.714Z,33.47
2022-10-11T23:33:57.487Z,27.67
2022-10-11T23:36:25.682Z,28.77
2022-10-11T23:38:57.259Z,30.83
2022-10-11T23:41:28.056Z,38.10
2022-10-11T23:43:54.606Z,44.97
2022-10-11T23:46:21.404Z,43.00
2022-10-11T23:48:48.239Z,31.47
2022-10-11T23:51:14.604Z,35.30
2022-10-11T23:53:40.892Z,28.40
2022-10-11T23:56:07.728Z,32.50
2022-10-11T23:58:34.155Z,33.60
